createdAt,value
2017-08-09T00:02:21.095Z,15.00
2017-08-09T00:04:50.093Z,15.00
2017-08-09T00:07:18.483Z,15.00
2017-08-09T00:09:46.726Z,15.10
2017-08-09T00:12:15.767Z,14.90
2017-08-09T00:14:43.990Z,14.90
2017-08-09T00:17:13.017Z,15.00
2017-08-09T00:19:41.251Z,15.00
2017-08-09T00:22:09.506Z,15.00
2017-08-09T00:24:37.763Z,15.00
2017-08-09T00:27:06.006Z,15.00
2017-08-09T00:29:35.031Z,14.80
2017-08-09T00:32:03.273Z,14.80
2017-08-09T00:34:32.305Z,14.70
2017-08-09T00:37:00.533Z,14.70
2017-08-09T00:39:29.534Z,14.70
2017-08-09T00:41:57.800Z,14.70
2017-08-09T00:44:26.027Z,14.70
2017-08-09T00:46:54.284Z,14.80
2017-08-09T00:49:22.561Z,14.80
2017-08-09T00:51:51.563Z,14.60
2017-08-09T00:54:19.848Z,14.50
2017-08-09T00:56:48.103Z,14.50
2017-08-09T00:59:17.115Z,14.40
2017-08-09T01:01:45.389Z,14.30
2017-08-09T01:04:13.683Z,14.40
2017-08-09T01:06:41.938Z,14.40
2017-08-09T01:09:10.184Z,14.60
2017-08-09T01:11:39.225Z,14.60
2017-08-09T01:14:07.457Z,14.60
2017-08-09T01:16:35.736Z,14.60
2017-08-09T01:19:04.743Z,14.40
2017-08-09T01:21:33.004Z,14.30
2017-08-09T01:24:01.240Z,14.20
2017-08-09T01:26:29.490Z,14.10
2017-08-09T01:28:57.723Z,14.10
2017-08-09T01:31:25.970Z,14.00
2017-08-09T01:33:54.241Z,14.10
2017-08-09T01:36:22.521Z,14.10
2017-08-09T01:38:50.769Z,14.10
2017-08-09T01:41:19.026Z,14.10
2017-08-09T01:43:48.042Z,14.20
2017-08-09T01:46:16.290Z,14.20
2017-08-09T01:48:45.318Z,14.10
2017-08-09T01:51:13.589Z,14.00
2017-08-09T01:53:41.838Z,14.00
2017-08-09T01:56:10.865Z,14.10
2017-08-09T01:58:39.134Z,14.10
2017-08-09T02:01:07.403Z,14.20
2017-08-09T02:03:35.667Z,14.10
2017-08-09T02:06:03.941Z,14.00
2017-08-09T02:08:32.979Z,14.00
2017-08-09T02:11:01.237Z,14.00
2017-08-09T02:13:29.513Z,14.00
2017-08-09T02:15:57.764Z,13.90
2017-08-09T02:18:26.006Z,13.90
2017-08-09T02:20:54.383Z,13.90
2017-08-09T02:23:22.610Z,13.80
2017-08-09T02:25:50.965Z,13.80
2017-08-09T02:28:19.202Z,13.60
2017-08-09T02:30:47.460Z,13.70
2017-08-09T02:33:15.738Z,13.60
2017-08-09T02:35:43.993Z,13.60
2017-08-09T02:38:13.024Z,13.50
2017-08-09T02:40:41.268Z,13.50
2017-08-09T02:43:10.496Z,13.50
2017-08-09T02:45:38.735Z,13.60
2017-08-09T02:48:07.046Z,13.60
2017-08-09T02:50:35.269Z,13.50
2017-08-09T02:53:03.543Z,13.50
2017-08-09T02:55:31.821Z,13.60
2017-08-09T02:58:00.045Z,13.60
2017-08-09T03:00:28.341Z,13.60
2017-08-09T03:02:56.572Z,13.60
2017-08-09T03:05:25.609Z,13.70
2017-08-09T03:07:54.681Z,13.60
2017-08-09T03:10:23.680Z,13.70
2017-08-09T03:12:51.913Z,13.70
2017-08-09T03:15:20.181Z,13.80
2017-08-09T03:17:48.436Z,13.90
2017-08-09T03:20:17.150Z,14.10
2017-08-09T03:22:45.416Z,14.20
2017-08-09T03:25:13.646Z,14.30
2017-08-09T03:27:41.901Z,14.40
2017-08-09T03:30:10.914Z,14.50
2017-08-09T03:32:39.186Z,14.50
2017-08-09T03:35:08.179Z,14.70
2017-08-09T03:37:36.454Z,14.70
2017-08-09T03:40:05.497Z,14.90
2017-08-09T03:42:33.770Z,14.80
2017-08-09T03:45:02.023Z,15.00
2017-08-09T03:47:30.321Z,15.10
2017-08-09T03:49:59.378Z,15.30
2017-08-09T03:52:27.591Z,15.30
2017-08-09T03:54:55.821Z,15.40
2017-08-09T03:57:24.074Z,15.50
2017-08-09T03:59:52.368Z,15.50
2017-08-09T04:02:20.703Z,15.60
2017-08-09T04:04:49.663Z,15.60
2017-08-09T04:07:18.672Z,15.60
2017-08-09T04:09:46.973Z,15.50
2017-08-09T04:12:15.227Z,15.50
2017-08-09T04:14:43.493Z,15.50
2017-08-09T04:17:12.491Z,15.60
2017-08-09T04:19:40.735Z,15.60
2017-08-09T04:22:08.993Z,15.70
2017-08-09T04:24:37.245Z,15.80
2017-08-09T04:27:05.470Z,15.70
2017-08-09T04:29:34.526Z,15.80
2017-08-09T04:32:02.737Z,15.80
2017-08-09T04:34:30.966Z,15.90
2017-08-09T04:36:59.206Z,16.00
2017-08-09T04:39:28.190Z,16.20
2017-08-09T04:41:57.217Z,16.20
2017-08-09T04:44:25.452Z,16.20
2017-08-09T04:46:53.719Z,16.20
2017-08-09T04:49:21.947Z,16.40
2017-08-09T04:51:50.194Z,16.50
2017-08-09T04:54:19.233Z,16.60
2017-08-09T04:56:47.495Z,16.60
2017-08-09T04:59:15.718Z,16.60
2017-08-09T05:01:43.985Z,16.70
2017-08-09T05:04:12.258Z,16.60
2017-08-09T05:06:40.482Z,16.60
2017-08-09T05:09:09.493Z,16.50
2017-08-09T05:11:37.730Z,16.50
2017-08-09T05:14:06.824Z,16.60
2017-08-09T05:16:35.206Z,16.70
2017-08-09T05:19:03.453Z,16.70
2017-08-09T05:21:31.687Z,16.80
2017-08-09T05:24:00.697Z,16.70
2017-08-09T05:26:28.933Z,16.70
2017-08-09T05:28:57.993Z,16.70
2017-08-09T05:31:26.215Z,16.60
2017-08-09T05:33:54.418Z,16.60
2017-08-09T05:36:22.669Z,16.70
2017-08-09T05:38:51.663Z,16.80
2017-08-09T05:41:20.686Z,16.80
2017-08-09T05:43:49.701Z,16.70
2017-08-09T05:46:17.947Z,16.70
2017-08-09T05:48:46.167Z,16.80
2017-08-09T05:51:14.431Z,16.80
2017-08-09T05:53:42.682Z,16.80
2017-08-09T05:56:10.924Z,16.60
2017-08-09T05:58:39.310Z,16.50
2017-08-09T06:01:07.596Z,16.50
2017-08-09T06:03:35.875Z,16.50
2017-08-09T06:06:05.223Z,16.60
2017-08-09T06:08:33.702Z,16.60
2017-08-09T06:11:02.113Z,16.50
2017-08-09T06:13:31.305Z,16.40
2017-08-09T06:15:59.698Z,16.40
2017-08-09T06:18:27.934Z,16.60
2017-08-09T06:20:56.188Z,16.80
2017-08-09T06:23:24.418Z,16.80
2017-08-09T06:25:52.646Z,16.70
2017-08-09T06:28:20.946Z,16.80
2017-08-09T06:30:49.168Z,16.50
2017-08-09T06:33:17.510Z,16.40
2017-08-09T06:35:45.816Z,16.60
2017-08-09T06:38:14.079Z,16.80
2017-08-09T06:40:42.342Z,16.80
2017-08-09T06:43:10.804Z,16.80
2017-08-09T06:45:39.095Z,16.80
2017-08-09T06:48:07.336Z,16.90
2017-08-09T06:50:35.605Z,16.90
2017-08-09T06:53:04.627Z,16.90
2017-08-09T06:55:33.267Z,16.80
2017-08-09T06:58:01.606Z,16.60
2017-08-09T07:00:29.893Z,16.70
2017-08-09T07:02:58.150Z,16.70
2017-08-09T07:05:26.396Z,16.80
2017-08-09T07:07:55.407Z,16.90
2017-08-09T07:10:23.665Z,16.80
2017-08-09T07:12:52.700Z,16.50
2017-08-09T07:15:20.950Z,16.50
2017-08-09T07:17:49.202Z,16.60
2017-08-09T07:20:17.866Z,16.70
2017-08-09T07:22:46.128Z,16.80
2017-08-09T07:25:14.378Z,16.90
2017-08-09T07:27:42.644Z,16.90
2017-08-09T07:30:10.875Z,17.20
2017-08-09T07:32:39.134Z,17.40
2017-08-09T07:35:07.370Z,17.40
2017-08-09T07:37:35.628Z,17.00
2017-08-09T07:40:03.877Z,16.90
2017-08-09T07:42:32.134Z,17.20
2017-08-09T07:45:00.395Z,17.40
2017-08-09T07:47:28.606Z,17.60
2017-08-09T07:49:56.875Z,17.80
2017-08-09T07:52:25.147Z,17.90
2017-08-09T07:54:53.402Z,18.20
2017-08-09T07:57:21.678Z,18.20
2017-08-09T07:59:49.926Z,18.00
2017-08-09T08:02:18.950Z,17.90
2017-08-09T08:04:47.187Z,17.90
2017-08-09T08:07:15.461Z,17.70
2017-08-09T08:09:43.691Z,17.60
2017-08-09T08:12:11.963Z,17.30
2017-08-09T08:14:40.199Z,17.30
2017-08-09T08:17:09.230Z,17.90
2017-08-09T08:19:37.506Z,17.90
2017-08-09T08:22:05.745Z,17.70
2017-08-09T08:24:34.765Z,17.90
2017-08-09T08:27:03.013Z,17.90
2017-08-09T08:29:31.266Z,18.20
2017-08-09T08:31:59.494Z,18.40
2017-08-09T08:34:27.778Z,18.60
2017-08-09T08:36:56.010Z,18.80
2017-08-09T08:39:24.257Z,18.70
2017-08-09T08:41:52.534Z,18.80
2017-08-09T08:44:20.792Z,18.70
2017-08-09T08:46:49.015Z,18.90
2017-08-09T08:49:17.272Z,19.00
2017-08-09T08:51:45.508Z,18.70
2017-08-09T08:54:14.541Z,18.80
2017-08-09T08:56:42.753Z,18.70
2017-08-09T08:59:11.775Z,18.20
2017-08-09T09:01:40.041Z,18.20
2017-08-09T09:04:08.298Z,18.30
2017-08-09T09:06:36.523Z,18.10
2017-08-09T09:09:04.774Z,18.30
2017-08-09T09:11:33.762Z,18.30
2017-08-09T09:14:02.812Z,18.50
2017-08-09T09:16:31.056Z,18.50
2017-08-09T09:18:59.298Z,18.40
2017-08-09T09:21:27.568Z,18.20
2017-08-09T09:23:55.807Z,18.60
2017-08-09T09:26:24.076Z,18.90
2017-08-09T09:28:52.289Z,19.00
2017-08-09T09:31:20.541Z,19.00
2017-08-09T09:33:48.821Z,19.00
2017-08-09T09:36:17.048Z,18.90
2017-08-09T09:38:45.312Z,19.00
2017-08-09T09:41:13.573Z,18.80
2017-08-09T09:43:41.805Z,18.70
2017-08-09T09:46:10.093Z,19.10
2017-08-09T09:48:38.347Z,19.50
2017-08-09T09:51:06.615Z,19.70
2017-08-09T09:53:35.651Z,19.40
2017-08-09T09:56:03.870Z,19.40
2017-08-09T09:58:32.188Z,19.70
2017-08-09T10:01:00.447Z,19.80
2017-08-09T10:03:28.699Z,20.00
2017-08-09T10:05:56.967Z,20.00
2017-08-09T10:08:25.251Z,19.70
2017-08-09T10:10:53.582Z,19.80
2017-08-09T10:13:21.807Z,20.00
2017-08-09T10:15:50.056Z,19.90
2017-08-09T10:18:18.538Z,20.20
2017-08-09T10:20:46.803Z,20.50
2017-08-09T10:23:15.030Z,20.30
2017-08-09T10:25:44.044Z,20.00
2017-08-09T10:28:12.288Z,20.00
2017-08-09T10:30:40.531Z,20.10
2017-08-09T10:33:08.826Z,20.20
2017-08-09T10:35:37.069Z,20.40
2017-08-09T10:38:05.320Z,20.70
2017-08-09T10:40:34.331Z,21.00
2017-08-09T10:43:02.557Z,20.90
2017-08-09T10:45:30.807Z,21.00
2017-08-09T10:47:59.065Z,20.90
2017-08-09T10:50:27.299Z,21.00
2017-08-09T10:52:55.754Z,21.00
2017-08-09T10:55:24.781Z,20.50
2017-08-09T10:57:53.816Z,20.60
2017-08-09T11:00:22.186Z,20.50
2017-08-09T11:02:50.426Z,20.50
2017-08-09T11:05:18.701Z,20.40
2017-08-09T11:07:46.950Z,20.40
2017-08-09T11:10:15.210Z,20.40
2017-08-09T11:12:43.446Z,20.40
2017-08-09T11:15:12.477Z,20.70
2017-08-09T11:17:40.769Z,20.70
2017-08-09T11:20:09.015Z,20.60
2017-08-09T11:22:37.264Z,20.70
2017-08-09T11:25:06.281Z,20.60
2017-08-09T11:27:34.544Z,20.60
2017-08-09T11:30:03.547Z,20.90
2017-08-09T11:32:32.582Z,20.70
2017-08-09T11:35:00.867Z,20.70
2017-08-09T11:37:29.106Z,20.90
2017-08-09T11:39:58.146Z,21.40
2017-08-09T11:42:26.424Z,21.40
2017-08-09T11:44:54.686Z,21.70
2017-08-09T11:47:23.244Z,21.50
2017-08-09T11:49:51.506Z,21.70
2017-08-09T11:52:19.788Z,21.90
2017-08-09T11:54:48.803Z,21.60
2017-08-09T11:57:17.803Z,21.20
2017-08-09T11:59:46.046Z,21.20
2017-08-09T12:02:14.251Z,20.90
2017-08-09T12:04:42.553Z,21.00
2017-08-09T12:07:10.834Z,21.40
2017-08-09T12:09:39.082Z,21.30
2017-08-09T12:12:07.360Z,21.50
2017-08-09T12:14:35.575Z,21.50
2017-08-09T12:17:03.836Z,21.40
2017-08-09T12:19:32.104Z,21.50
2017-08-09T12:22:00.380Z,21.60
2017-08-09T12:24:28.664Z,21.60
2017-08-09T12:26:57.214Z,21.40
2017-08-09T12:29:25.449Z,21.60
2017-08-09T12:31:53.693Z,21.70
2017-08-09T12:34:21.948Z,21.70
2017-08-09T12:36:50.201Z,21.80
2017-08-09T12:39:18.470Z,21.60
2017-08-09T12:41:46.770Z,21.80
2017-08-09T12:44:15.016Z,22.10
2017-08-09T12:46:43.276Z,22.30
2017-08-09T12:49:11.558Z,22.60
2017-08-09T12:51:39.841Z,22.50
2017-08-09T12:54:08.102Z,22.70
2017-08-09T12:56:36.339Z,23.00
2017-08-09T12:59:04.588Z,22.80
2017-08-09T13:01:33.585Z,23.00
2017-08-09T13:04:02.626Z,22.80
2017-08-09T13:06:30.906Z,22.80
2017-08-09T13:08:59.601Z,22.80
2017-08-09T13:11:27.878Z,22.80
2017-08-09T13:13:56.157Z,22.90
2017-08-09T13:16:24.395Z,23.00
2017-08-09T13:18:53.395Z,22.90
2017-08-09T13:21:21.611Z,22.90
2017-08-09T13:23:49.873Z,23.00
2017-08-09T13:26:18.152Z,22.70
2017-08-09T13:28:46.419Z,22.40
2017-08-09T13:31:14.697Z,22.30
2017-08-09T13:33:42.950Z,22.40
2017-08-09T13:36:11.232Z,22.40
2017-08-09T13:38:39.506Z,22.50
2017-08-09T13:41:07.765Z,22.30
2017-08-09T13:43:36.760Z,22.20
2017-08-09T13:46:05.767Z,22.10
2017-08-09T13:48:34.042Z,22.00
2017-08-09T13:51:02.308Z,22.30
2017-08-09T13:53:30.611Z,22.40
2017-08-09T13:55:59.591Z,22.70
2017-08-09T13:58:28.609Z,23.00
2017-08-09T14:00:56.882Z,22.90
2017-08-09T14:03:25.370Z,23.20
2017-08-09T14:05:53.618Z,23.40
2017-08-09T14:08:21.875Z,23.40
2017-08-09T14:10:50.143Z,23.40
2017-08-09T14:13:18.378Z,23.60
2017-08-09T14:15:46.638Z,23.50
2017-08-09T14:18:14.946Z,23.30
2017-08-09T14:20:43.248Z,23.40
2017-08-09T14:23:11.539Z,23.40
2017-08-09T14:25:39.776Z,23.40
2017-08-09T14:28:08.036Z,23.40
2017-08-09T14:30:36.320Z,23.30
2017-08-09T14:33:04.696Z,23.20
2017-08-09T14:35:32.958Z,23.30
2017-08-09T14:38:01.206Z,23.60
2017-08-09T14:40:29.448Z,23.40
2017-08-09T14:42:57.704Z,23.30
2017-08-09T14:45:25.953Z,23.40
2017-08-09T14:47:54.986Z,23.10
2017-08-09T14:50:23.209Z,23.10
2017-08-09T14:52:52.254Z,22.90
2017-08-09T14:55:20.489Z,22.90
2017-08-09T14:57:49.494Z,22.90
2017-08-09T15:00:17.755Z,22.80
2017-08-09T15:02:46.754Z,22.80
2017-08-09T15:05:15.770Z,22.80
2017-08-09T15:07:44.054Z,22.70
2017-08-09T15:10:12.311Z,22.70
2017-08-09T15:12:40.566Z,22.80
2017-08-09T15:15:09.570Z,22.90
2017-08-09T15:17:38.597Z,22.80
2017-08-09T15:20:06.853Z,22.70
2017-08-09T15:22:35.161Z,22.70
2017-08-09T15:25:03.441Z,22.80
2017-08-09T15:27:31.723Z,22.70
2017-08-09T15:30:00.029Z,22.90
2017-08-09T15:32:28.287Z,23.00
2017-08-09T15:34:56.564Z,23.00
2017-08-09T15:37:24.830Z,22.80
2017-08-09T15:39:53.094Z,22.70
2017-08-09T15:42:21.298Z,22.60
2017-08-09T15:44:49.584Z,22.60
2017-08-09T15:47:17.829Z,22.70
2017-08-09T15:49:46.092Z,22.80
2017-08-09T15:52:14.348Z,22.70
2017-08-09T15:54:42.613Z,22.50
2017-08-09T15:57:10.855Z,22.50
2017-08-09T15:59:39.113Z,22.50
2017-08-09T16:02:07.358Z,22.40
2017-08-09T16:04:36.362Z,22.30
2017-08-09T16:07:04.634Z,22.40
2017-08-09T16:09:32.868Z,22.50
2017-08-09T16:12:01.140Z,22.60
2017-08-09T16:14:29.423Z,22.80
2017-08-09T16:16:57.684Z,23.00
2017-08-09T16:19:25.967Z,22.90
2017-08-09T16:21:54.338Z,22.90
2017-08-09T16:24:22.563Z,22.80
2017-08-09T16:26:51.564Z,22.80
2017-08-09T16:29:19.853Z,22.80
2017-08-09T16:31:48.123Z,22.90
2017-08-09T16:34:16.380Z,23.00
2017-08-09T16:36:44.662Z,23.00
2017-08-09T16:39:12.942Z,23.00
2017-08-09T16:41:44.113Z,23.00
2017-08-09T16:44:12.345Z,23.10
2017-08-09T16:46:40.690Z,23.20
2017-08-09T16:49:08.910Z,23.20
2017-08-09T16:51:37.953Z,23.00
2017-08-09T16:54:06.154Z,23.00
2017-08-09T16:56:36.249Z,23.10
2017-08-09T16:59:04.528Z,23.20
2017-08-09T17:01:33.532Z,23.30
2017-08-09T17:04:01.764Z,23.20
2017-08-09T17:06:30.854Z,23.20
2017-08-09T17:08:59.111Z,23.10
2017-08-09T17:11:27.369Z,23.20
2017-08-09T17:13:55.654Z,23.20
2017-08-09T17:16:23.927Z,23.30
2017-08-09T17:18:52.222Z,23.20
2017-08-09T17:21:21.301Z,22.90
2017-08-09T17:23:49.559Z,22.90
2017-08-09T17:26:18.651Z,22.90
2017-08-09T17:28:46.978Z,22.80
2017-08-09T17:31:15.220Z,22.80
2017-08-09T17:33:43.475Z,22.80
2017-08-09T17:36:11.743Z,22.90
2017-08-09T17:38:40.010Z,23.00
2017-08-09T17:41:09.163Z,22.90
2017-08-09T17:43:37.389Z,22.90
2017-08-09T17:46:05.676Z,22.80
2017-08-09T17:48:33.996Z,22.60
2017-08-09T17:51:02.264Z,22.30
2017-08-09T17:53:30.557Z,22.00
2017-08-09T17:55:58.818Z,21.90
2017-08-09T17:58:27.103Z,21.70
2017-08-09T18:00:55.469Z,21.60
2017-08-09T18:03:23.693Z,21.50
2017-08-09T18:05:52.726Z,21.50
2017-08-09T18:08:20.993Z,21.40
2017-08-09T18:10:49.289Z,21.50
2017-08-09T18:13:17.554Z,21.50
2017-08-09T18:15:45.828Z,21.50
2017-08-09T18:18:14.099Z,21.50
2017-08-09T18:20:42.343Z,21.30
2017-08-09T18:23:10.625Z,21.20
2017-08-09T18:25:38.893Z,21.10
2017-08-09T18:28:07.231Z,21.00
2017-08-09T18:30:35.469Z,21.00
2017-08-09T18:33:03.722Z,20.90
2017-08-09T18:35:31.990Z,21.00
2017-08-09T18:38:00.259Z,21.00
2017-08-09T18:40:28.570Z,20.90
2017-08-09T18:42:56.844Z,20.90
2017-08-09T18:45:25.102Z,20.70
2017-08-09T18:47:53.405Z,20.60
2017-08-09T18:50:22.408Z,20.40
2017-08-09T18:52:50.745Z,20.40
2017-08-09T18:55:19.029Z,20.50
2017-08-09T18:57:47.244Z,20.40
2017-08-09T19:00:16.268Z,20.20
2017-08-09T19:02:45.015Z,20.20
2017-08-09T19:05:13.273Z,20.10
2017-08-09T19:07:41.523Z,20.00
2017-08-09T19:10:09.817Z,19.80
2017-08-09T19:12:38.054Z,19.60
2017-08-09T19:15:06.357Z,19.50
2017-08-09T19:17:34.692Z,19.50
2017-08-09T19:20:03.721Z,19.40
2017-08-09T19:22:31.985Z,19.40
2017-08-09T19:25:00.271Z,19.40
2017-08-09T19:27:28.521Z,19.40
2017-08-09T19:29:56.803Z,19.40
2017-08-09T19:32:25.084Z,19.40
2017-08-09T19:34:53.393Z,19.30
2017-08-09T19:37:21.647Z,19.20
2017-08-09T19:39:49.895Z,19.10
2017-08-09T19:42:18.955Z,19.00
2017-08-09T19:44:47.605Z,19.00
2017-08-09T19:47:15.858Z,19.00
2017-08-09T19:49:44.105Z,18.90
2017-08-09T19:52:12.357Z,18.70
2017-08-09T19:54:40.644Z,18.60
2017-08-09T19:57:08.958Z,18.60
2017-08-09T19:59:37.215Z,18.50
2017-08-09T20:02:05.491Z,18.40
2017-08-09T20:04:33.766Z,18.40
2017-08-09T20:07:02.034Z,18.40
2017-08-09T20:09:30.286Z,18.50
2017-08-09T20:11:59.313Z,18.40
2017-08-09T20:14:27.576Z,18.50
2017-08-09T20:16:55.894Z,18.40
2017-08-09T20:19:24.105Z,18.50
2017-08-09T20:21:52.395Z,18.50
2017-08-09T20:24:20.760Z,18.40
2017-08-09T20:26:49.036Z,18.40
2017-08-09T20:29:17.302Z,18.40
2017-08-09T20:31:45.565Z,18.40
2017-08-09T20:34:13.842Z,18.40
2017-08-09T20:36:42.154Z,18.40
2017-08-09T20:39:10.437Z,18.40
2017-08-09T20:41:38.709Z,18.30
2017-08-09T20:44:07.011Z,18.30
2017-08-09T20:46:35.272Z,18.30
2017-08-09T20:49:03.569Z,18.20
2017-08-09T20:51:31.827Z,18.00
2017-08-09T20:54:00.079Z,17.70
2017-08-09T20:56:28.440Z,17.50
2017-08-09T20:58:58.339Z,17.20
2017-08-09T21:01:27.406Z,17.20
2017-08-09T21:03:55.663Z,17.10
2017-08-09T21:06:23.956Z,17.20
2017-08-09T21:08:52.996Z,17.20
2017-08-09T21:11:21.321Z,17.10
2017-08-09T21:13:49.591Z,17.10
2017-08-09T21:16:17.912Z,17.10
2017-08-09T21:18:46.261Z,17.10
2017-08-09T21:21:14.840Z,17.20
2017-08-09T21:23:43.074Z,17.20
2017-08-09T21:26:12.116Z,17.30
2017-08-09T21:28:40.360Z,17.30
2017-08-09T21:31:08.657Z,17.20
2017-08-09T21:33:36.907Z,16.90
2017-08-09T21:36:05.165Z,16.80
2017-08-09T21:38:34.242Z,16.70
2017-08-09T21:41:02.531Z,16.70
2017-08-09T21:43:31.546Z,16.70
2017-08-09T21:46:00.567Z,16.70
2017-08-09T21:48:28.826Z,16.70
2017-08-09T21:50:57.096Z,16.70
2017-08-09T21:53:25.375Z,16.60
2017-08-09T21:55:54.385Z,16.60
2017-08-09T21:58:22.679Z,16.60
2017-08-09T22:00:50.926Z,16.60
2017-08-09T22:03:19.228Z,16.60
2017-08-09T22:05:47.776Z,16.60
2017-08-09T22:08:16.095Z,16.60
2017-08-09T22:10:44.822Z,16.70
2017-08-09T22:13:13.086Z,16.80
2017-08-09T22:15:41.342Z,16.90
2017-08-09T22:18:09.577Z,16.80
2017-08-09T22:20:38.589Z,16.70
2017-08-09T22:23:06.811Z,16.70
2017-08-09T22:25:35.058Z,16.70
2017-08-09T22:28:03.305Z,16.70
2017-08-09T22:30:31.595Z,16.60
2017-08-09T22:32:59.886Z,16.50
2017-08-09T22:35:28.139Z,16.30
2017-08-09T22:37:57.161Z,16.40
2017-08-09T22:40:25.394Z,16.40
2017-08-09T22:42:53.683Z,16.50
2017-08-09T22:45:21.927Z,16.60
2017-08-09T22:47:50.190Z,16.50
2017-08-09T22:50:18.439Z,16.50
2017-08-09T22:52:46.706Z,16.50
2017-08-09T22:55:15.018Z,16.40
2017-08-09T22:57:43.227Z,16.40
2017-08-09T23:00:12.253Z,16.60
2017-08-09T23:02:40.519Z,16.60
2017-08-09T23:05:08.785Z,16.50
2017-08-09T23:07:37.778Z,16.30
2017-08-09T23:10:06.014Z,16.30
2017-08-09T23:12:34.273Z,16.20
2017-08-09T23:15:02.534Z,16.20
2017-08-09T23:17:30.806Z,16.20
2017-08-09T23:19:59.042Z,16.20
2017-08-09T23:22:27.379Z,16.20
2017-08-09T23:24:55.651Z,16.20
2017-08-09T23:27:23.908Z,16.20
2017-08-09T23:29:52.152Z,16.10
2017-08-09T23:32:20.405Z,16.00
2017-08-09T23:34:48.667Z,16.10
2017-08-09T23:37:16.889Z,16.10
2017-08-09T23:39:45.905Z,16.40
2017-08-09T23:42:14.900Z,16.30
2017-08-09T23:44:43.160Z,16.20
2017-08-09T23:47:12.215Z,16.20
2017-08-09T23:49:40.438Z,16.20
2017-08-09T23:52:09.430Z,16.10
2017-08-09T23:54:37.846Z,16.10
2017-08-09T23:57:06.113Z,16.00
2017-08-09T23:59:34.401Z,15.90
